Stephenville Airport

About
Name: Stephenville Airport
Identifier:  SEP/KSEP
Local Time:  23. Aug 04:21
Location
Stephenville
  United States

Flights per Day
0 flights
Punctuality
66% (0 flights per day delayed)
Delay Average: 25 minutes
Current Weather
 30 C (Humidity: 48%)
  6kt (11km/h / 6mph) from 140°
  16km (10 mi.)
 
 METAR KSEP 230355Z AUTO 14006KT 10SM CLR 30/18 A2995 RMK AO2 T02950178

Current Flights

Departures
Number Departure To Airline
Arrivals
Number Arrival From Airline

Current Delays

Departures
N/A
Arrivals
N/A

Destinations

Top Destinations
Airport Flights
per week
Seats
per week
  Fort Worth (FTW) 2 - 0 0
  Houston (HOU) 2 - 0 0
  San Angelo (SJT) 0 - 0 0
  Albuquerque (ABQ) 0 - 0 0
  Austin (EDC) 0 - 0 0
  New Orleans (MSY) 0 - 0 0
  Conroe (CXO) 0 - 0 0
  Durant (DUA) 0 - 0 0
  Las Vegas (HSH) 0 - 0 0
  Fort Scott (FSK) 0 - 0 0
  Galveston (GLS) 0 - 0 0
  San Marcos (HYI) 0 - 0 0
  San Antonio (SAT) 0 - 0 0
  Sherman (PNX) 0 - 0 0
  Paris (PRX) 0 - 0 0
  Lubbock (LBB) 0 - 0 0
  Amarillo (TDW) 0 - 0 0
  Sugar Land (SGR) 0 - 0 0
  Tyler (TYR) 0 - 0 0

Airlines & Planes

Top Airlines
Airline Flights
per Day
Seats
per Day
  Nolinor Aviation 0 -
  Novair 0 -
Jet Charter Inc ( Franklin Lakes Nj ) 0 -
Nordwind Airlines 0 -
Top Plane Types
Model Flights Seats
Beech B200 Super King Air 0.3/day - 0
Cessna C172 0.1/day - 0
Cessna C340 0.1/day - 0
Beech E90 King Air 0.0/day - 0
Piper PA28-181 0.0/day - 0